Time;durP1;ratioP1;P1;durP2;ratioP2;P2;SDS_P1;SDS_P2;PMS_P1;PMS_P2;Temp;Humidity;BMP_temperature;BMP_pressure;BME280_temperature;BME280_humidity;BME280_pressure;Samples;Min_cycle;Max_cycle;Signal;HPM_P1;HPM_P2
2023/06/11 00:00:32;;;;;;;6.27;5.67;;;24.70;58.00;;;27.33;40.57;101761.88;5040833;28;20617;-62
2023/06/11 00:02:59;;;;;;;8.47;6.13;;;24.70;58.00;;;27.31;40.78;101761.31;5055883;28;20257;-64
2023/06/11 00:05:27;;;;;;;6.27;5.67;;;24.70;58.10;;;27.30;40.84;101765.09;5056521;28;20217;-64
2023/06/11 00:08:02;;;;;;;5.90;5.27;;;24.70;58.20;;;27.29;40.47;101760.75;5048887;28;20229;-63
2023/06/11 00:10:29;;;;;;;6.97;6.27;;;24.60;58.30;;;27.27;40.88;101762.88;5036388;28;20599;-63
2023/06/11 00:12:56;;;;;;;6.27;5.70;;;24.60;58.20;;;27.26;40.76;101761.28;5036004;28;20191;-62
2023/06/11 00:15:25;;;;;;;5.87;5.13;;;24.60;58.20;;;27.25;40.87;101762.34;5049238;28;20218;-63
2023/06/11 00:17:52;;;;;;;8.60;5.63;;;24.60;58.30;;;27.25;41.09;101765.03;5056032;28;20205;-64
2023/06/11 00:20:20;;;;;;;6.13;5.10;;;24.60;58.40;;;27.23;40.71;101768.00;5055741;28;20190;-63
2023/06/11 00:22:47;;;;;;;6.03;5.53;;;24.60;58.50;;;27.24;41.06;101769.63;5055566;28;20273;-65
2023/06/11 00:25:14;;;;;;;6.03;5.23;;;24.60;58.40;;;27.25;40.78;101767.75;5055657;28;20205;-64
2023/06/11 00:27:41;;;;;;;6.00;5.40;;;24.60;58.60;;;27.24;40.90;101768.84;5053377;28;20208;-66
2023/06/11 00:30:09;;;;;;;7.77;5.70;;;24.50;58.50;;;27.23;40.81;101773.44;5035708;28;20726;-64
2023/06/11 00:32:38;;;;;;;9.00;5.40;;;24.50;58.50;;;27.21;40.19;101775.56;5035751;28;20198;-64
2023/06/11 00:35:07;;;;;;;5.47;4.97;;;24.50;58.50;;;27.19;40.45;101779.63;5035039;28;20760;-64
2023/06/11 00:37:35;;;;;;;7.20;5.20;;;24.40;58.40;;;27.14;40.42;101783.09;5036056;28;20206;-63
2023/06/11 00:40:03;;;;;;;5.90;5.43;;;24.40;58.30;;;27.10;40.67;101773.84;5037067;28;20197;-62
2023/06/11 00:42:33;;;;;;;6.60;4.93;;;24.40;58.30;;;27.05;40.47;101773.03;5055093;28;20220;-63
2023/06/11 00:45:01;;;;;;;6.70;5.30;;;24.40;58.30;;;27.03;40.89;101767.06;5055410;28;20217;-63
2023/06/11 00:47:29;;;;;;;5.40;4.90;;;24.30;58.20;;;26.99;40.46;101771.34;5054107;28;20670;-63
2023/06/11 00:49:59;;;;;;;5.03;4.47;;;24.30;58.20;;;26.96;40.48;101777.28;5055340;28;20273;-63
2023/06/11 00:52:26;;;;;;;8.63;5.10;;;24.30;58.00;;;26.92;40.27;101768.03;5055466;28;20198;-63
2023/06/11 00:54:54;;;;;;;6.23;5.03;;;24.20;58.00;;;26.86;40.38;101770.69;5054903;28;20277;-64
2023/06/11 00:57:25;;;;;;;7.17;4.77;;;24.20;57.60;;;26.84;39.70;101774.72;5044508;28;20187;-63
2023/06/11 00:59:55;;;;;;;5.00;4.50;;;24.10;57.40;;;26.82;39.63;101776.88;5035205;28;20198;-64
2023/06/11 01:02:33;;;;;;;6.37;4.87;;;24.10;57.40;;;26.78;40.21;101770.34;5049149;28;20229;-65
2023/06/11 01:05:04;;;;;;;9.93;4.67;;;24.10;57.20;;;26.76;40.02;101770.63;5034571;28;20208;-64
2023/06/11 01:07:38;;;;;;;4.97;4.50;;;24.00;57.00;;;26.71;39.28;101770.53;5038863;28;20247;-64
2023/06/11 01:10:07;;;;;;;5.50;4.90;;;24.00;56.80;;;26.68;39.12;101767.50;5055022;28;20261;-64
2023/06/11 01:12:34;;;;;;;7.03;4.67;;;24.00;56.70;;;26.64;39.10;101764.53;5036891;28;20285;-64
2023/06/11 01:15:01;;;;;;;4.17;3.87;;;23.90;56.30;;;26.62;39.08;101777.47;5033960;28;20276;-63
2023/06/11 01:17:40;;;;;;;5.77;3.87;;;23.90;56.20;;;26.58;39.39;101770.94;5054584;28;20681;-63
2023/06/11 01:20:16;;;;;;;4.30;3.87;;;23.90;56.00;;;26.56;38.46;101767.69;5054497;28;20255;-64
2023/06/11 01:23:23;;;;;;;7.37;4.30;;;23.90;55.50;;;26.46;38.92;101772.19;5054805;28;20256;-64
2023/06/11 01:26:13;;;;;;;6.90;4.47;;;23.90;55.20;;;26.43;38.50;101778.91;5037801;28;20229;-64
2023/06/11 01:28:46;;;;;;;7.50;4.47;;;23.80;54.60;;;26.42;37.77;101777.25;5034683;28;20209;-64
2023/06/11 01:31:15;;;;;;;5.00;3.93;;;23.70;54.20;;;26.43;38.08;101784.31;5034142;28;20179;-63
2023/06/11 01:33:42;;;;;;;4.23;3.83;;;23.70;54.10;;;26.43;38.07;101783.47;5034009;28;20564;-64
2023/06/11 01:36:10;;;;;;;4.10;3.70;;;23.70;54.00;;;26.40;37.71;101779.41;5034052;28;20563;-63
2023/06/11 01:38:44;;;;;;;6.10;3.93;;;23.70;53.70;;;26.40;37.26;101784.81;5034544;28;20221;-64
2023/06/11 01:41:12;;;;;;;4.03;3.50;;;23.70;53.50;;;26.34;37.33;101780.41;5050251;28;20593;-64
2023/06/11 01:43:40;;;;;;;4.17;3.63;;;23.60;52.80;;;26.32;36.43;101782.53;5053385;28;20201;-63
2023/06/11 01:46:08;;;;;;;4.53;3.37;;;23.60;52.50;;;26.30;36.53;101789.25;5054405;28;20210;-64
2023/06/11 01:48:35;;;;;;;4.20;3.60;;;23.60;52.30;;;26.26;36.55;101788.97;5054194;28;20197;-64
2023/06/11 01:51:02;;;;;;;5.33;4.00;;;23.50;52.30;;;26.22;36.57;101782.41;5054383;28;20196;-64
2023/06/11 01:53:30;;;;;;;3.90;3.43;;;23.60;52.20;;;26.20;36.28;101789.97;5053500;28;20236;-65
2023/06/11 01:55:58;;;;;;;4.80;4.03;;;23.50;52.00;;;26.18;36.13;101786.69;5044167;28;20245;-65
2023/06/11 01:58:25;;;;;;;4.83;4.30;;;23.50;51.80;;;26.10;36.07;101789.81;5054136;28;20193;-64
2023/06/11 02:00:53;;;;;;;5.20;4.17;;;23.40;51.50;;;26.04;36.71;101788.13;5054321;28;20263;-64
2023/06/11 02:03:21;;;;;;;5.70;3.87;;;23.40;51.70;;;25.99;36.10;101788.06;5053705;28;20190;-63
2023/06/11 02:05:48;;;;;;;6.07;4.30;;;23.30;51.60;;;25.92;36.11;101792.81;5053705;28;20213;-64
2023/06/11 02:08:15;;;;;;;5.07;3.97;;;23.20;51.50;;;25.86;36.33;101788.44;5046405;28;20645;-63
2023/06/11 02:10:43;;;;;;;5.07;4.30;;;23.20;51.50;;;25.80;36.38;101800.19;5053280;28;20224;-64
2023/06/11 02:13:10;;;;;;;4.90;3.90;;;23.10;51.60;;;25.75;36.87;101792.03;5053914;28;20200;-63
2023/06/11 02:15:37;;;;;;;9.77;4.50;;;23.00;51.80;;;25.69;36.80;101787.66;5038070;28;20714;-64
2023/06/11 02:18:05;;;;;;;5.20;3.77;;;23.00;51.40;;;25.64;36.19;101798.38;5033881;28;20277;-64
2023/06/11 02:20:34;;;;;;;6.00;3.80;;;22.90;51.50;;;25.58;36.86;101796.69;5032394;28;20227;-64
2023/06/11 02:23:02;;;;;;;4.47;3.93;;;22.90;51.60;;;25.51;36.50;101794.94;5048880;28;20197;-63
2023/06/11 02:25:29;;;;;;;5.70;3.67;;;22.80;51.20;;;25.48;36.31;101798.13;5053172;28;20216;-63
2023/06/11 02:27:56;;;;;;;5.87;3.90;;;22.80;51.50;;;25.46;36.04;101799.44;5053453;28;20289;-63
2023/06/11 02:30:22;;;;;;;5.43;4.03;;;22.70;51.30;;;25.41;36.58;101792.06;5053385;28;20284;-63
2023/06/11 02:32:50;;;;;;;4.83;3.73;;;22.70;51.10;;;25.35;36.50;101793.06;5053252;28;20629;-63
2023/06/11 02:35:17;;;;;;;5.90;4.23;;;22.60;51.00;;;25.32;36.41;101792.72;5053771;28;20218;-62
2023/06/11 02:37:45;;;;;;;12.17;4.90;;;22.60;51.00;;;25.28;36.45;101791.59;5034762;28;20203;-64
2023/06/11 02:40:12;;;;;;;6.77;4.37;;;22.50;51.20;;;25.24;36.09;101801.25;5036457;28;20309;-63
2023/06/11 02:42:39;;;;;;;6.07;4.20;;;22.50;51.00;;;25.18;35.88;101792.25;5053819;28;20292;-64
2023/06/11 02:45:08;;;;;;;4.73;4.00;;;22.50;51.00;;;25.15;36.01;101791.94;5053240;28;20236;-63
2023/06/11 02:47:35;;;;;;;4.67;4.13;;;22.40;51.00;;;25.06;36.90;101794.19;5053560;28;20190;-65
2023/06/11 02:50:03;;;;;;;4.37;3.97;;;22.30;51.40;;;25.05;36.91;101797.97;5053340;28;20217;-64
2023/06/11 02:52:30;;;;;;;5.20;3.97;;;22.30;51.60;;;24.98;36.94;101791.94;5052903;28;20225;-64
2023/06/11 02:54:58;;;;;;;5.90;4.40;;;22.20;51.60;;;24.96;36.39;101799.41;5053999;28;20238;-64
2023/06/11 02:57:25;;;;;;;5.00;3.80;;;22.20;51.70;;;24.93;36.20;101805.31;5057232;28;20208;-65
2023/06/11 02:59:52;;;;;;;5.13;4.07;;;22.20;51.60;;;24.89;36.26;101806.84;5057373;28;20286;-64
2023/06/11 03:02:19;;;;;;;6.43;3.97;;;22.20;51.60;;;24.86;36.92;101796.56;5054013;28;20194;-66
2023/06/11 03:04:46;;;;;;;6.63;3.70;;;22.10;51.60;;;24.83;36.79;101805.13;5056831;28;20339;-64
2023/06/11 03:07:13;;;;;;;5.43;3.77;;;22.10;51.50;;;24.79;36.31;101809.38;5055583;28;20276;-63
2023/06/11 03:09:40;;;;;;;7.57;3.70;;;22.10;51.60;;;24.75;36.49;101803.59;5054464;28;20194;-63
2023/06/11 03:12:09;;;;;;;5.37;3.87;;;22.00;51.60;;;24.72;36.65;101808.69;5040991;28;20285;-63
2023/06/11 03:14:36;;;;;;;4.30;3.90;;;22.00;51.60;;;24.70;36.44;101805.38;5036744;28;20293;-63
2023/06/11 03:17:03;;;;;;;4.87;3.53;;;21.90;51.40;;;24.68;36.83;101805.63;5037028;28;20687;-64
2023/06/11 03:19:30;;;;;;;5.73;4.07;;;21.90;51.90;;;24.66;36.95;101809.63;5037009;28;20214;-64
2023/06/11 03:21:57;;;;;;;4.83;3.80;;;21.90;51.80;;;24.64;36.84;101806.34;5051554;28;20213;-64
2023/06/11 03:24:24;;;;;;;6.97;4.00;;;21.90;51.70;;;24.61;36.39;101806.84;5056615;28;20284;-64
2023/06/11 03:26:51;;;;;;;4.53;3.70;;;21.90;51.60;;;24.57;36.83;101811.06;5039849;28;20202;-64
2023/06/11 03:29:20;;;;;;;4.23;3.40;;;21.80;51.60;;;24.55;36.46;101807.81;5036987;28;20297;-64
2023/06/11 03:31:47;;;;;;;6.13;3.30;;;21.80;51.60;;;24.53;36.45;101809.94;5049685;28;20209;-66
2023/06/11 03:34:14;;;;;;;7.23;3.47;;;21.70;51.40;;;24.50;36.66;101807.72;5056318;28;20190;-64
2023/06/11 03:36:41;;;;;;;5.53;3.50;;;21.70;51.60;;;24.46;36.76;101803.88;5056689;28;20308;-63
2023/06/11 03:39:07;;;;;;;5.40;4.73;;;21.70;51.50;;;24.42;36.66;101808.91;5057033;28;20273;-63
2023/06/11 03:41:34;;;;;;;8.20;3.70;;;21.60;51.40;;;24.40;37.07;101810.19;5054889;28;20671;-64
2023/06/11 03:44:01;;;;;;;4.90;4.37;;;21.60;51.40;;;24.35;36.42;101812.78;5056702;28;20666;-62
2023/06/11 03:46:30;;;;;;;3.80;3.37;;;21.60;51.30;;;24.33;36.69;101809.50;5056610;28;20194;-63
2023/06/11 03:48:57;;;;;;;5.33;3.43;;;21.60;51.50;;;24.31;36.82;101811.63;5056567;28;20186;-63
2023/06/11 03:51:24;;;;;;;3.10;2.80;;;21.50;51.40;;;24.28;36.52;101812.94;5046199;28;20278;-63
2023/06/11 03:53:51;;;;;;;4.10;3.43;;;21.50;51.20;;;24.26;36.81;101824.97;5035967;28;20237;-63
2023/06/11 03:56:18;;;;;;;3.77;3.37;;;21.50;51.30;;;24.23;36.77;101819.03;5048509;28;20224;-63
2023/06/11 03:58:45;;;;;;;5.27;4.50;;;21.50;51.60;;;24.20;36.89;101811.41;5056183;28;20240;-65
2023/06/11 04:01:12;;;;;;;5.33;3.83;;;21.40;51.20;;;24.17;36.97;101811.09;5054269;28;20197;-64
2023/06/11 04:03:40;;;;;;;5.40;3.17;;;21.40;51.40;;;24.14;36.94;101809.69;5055674;28;20236;-63
2023/06/11 04:06:07;;;;;;;4.27;3.10;;;21.40;51.30;;;24.12;36.90;101801.03;5055396;28;20233;-64
2023/06/11 04:08:34;;;;;;;5.17;3.50;;;21.40;51.20;;;24.09;36.48;101809.59;5042989;28;20230;-63
2023/06/11 04:11:01;;;;;;;4.33;2.97;;;21.30;51.10;;;24.07;36.60;101811.69;5036282;28;20277;-63
2023/06/11 04:13:29;;;;;;;8.70;3.60;;;21.30;51.10;;;24.04;36.71;101814.00;5035490;28;20198;-63
2023/06/11 04:15:56;;;;;;;5.43;3.80;;;21.30;51.20;;;24.01;36.76;101812.59;5035706;28;20774;-63
2023/06/11 04:18:23;;;;;;;3.37;3.07;;;21.20;51.30;;;24.01;36.75;101812.59;5035651;28;20198;-61
2023/06/11 04:20:51;;;;;;;4.97;2.90;;;21.20;51.40;;;24.01;36.75;101812.59;5040034;28;20277;-63
2023/06/11 04:23:18;;;;;;;7.27;3.63;;;21.20;51.40;;;24.01;36.84;101817.19;5055229;28;20205;-63
2023/06/11 04:25:48;;;;;;;5.30;3.10;;;21.20;51.40;;;23.98;36.66;101823.84;5055597;28;20293;-63
2023/06/11 04:28:15;;;;;;;4.37;3.07;;;21.20;51.30;;;23.96;36.83;101828.63;5055991;28;20569;-63
2023/06/11 04:30:43;;;;;;;3.00;2.70;;;21.20;51.30;;;23.96;36.79;101822.47;5052316;28;20198;-63
2023/06/11 04:33:10;;;;;;;4.33;3.20;;;21.20;51.30;;;23.94;36.94;101828.06;5035657;28;20194;-68
2023/06/11 04:35:37;;;;;;;4.37;2.90;;;21.20;51.20;;;23.93;37.05;101826.44;5036165;28;20261;-65
2023/06/11 04:38:05;;;;;;;5.97;2.97;;;21.10;51.10;;;23.90;36.52;101816.13;5035958;28;20194;-64
2023/06/11 04:40:33;;;;;;;4.97;2.90;;;21.20;51.10;;;23.85;36.69;101817.88;5040579;28;20276;-66
2023/06/11 04:43:01;;;;;;;6.60;2.90;;;21.10;51.00;;;23.80;36.68;101815.91;5054872;28;20198;-64
2023/06/11 04:45:30;;;;;;;5.43;2.93;;;21.10;51.00;;;23.78;36.77;101815.34;5055580;28;20213;-64
2023/06/11 04:47:56;;;;;;;4.37;3.00;;;21.10;51.10;;;23.75;36.98;101821.16;5055307;28;20730;-63
2023/06/11 04:50:24;;;;;;;4.33;2.83;;;21.10;51.00;;;23.68;36.82;101817.00;5054972;28;20205;-64
2023/06/11 04:52:52;;;;;;;4.10;2.50;;;21.10;50.80;;;23.63;36.98;101814.97;5035125;28;20183;-64
2023/06/11 04:55:24;;;;;;;6.30;3.33;;;21.00;50.90;;;23.61;36.88;101817.09;5039453;28;20271;-64
2023/06/11 04:57:51;;;;;;;3.33;2.40;;;21.00;51.10;;;23.60;37.07;101815.47;5055135;28;20194;-63
2023/06/11 05:00:18;;;;;;;7.63;3.07;;;21.00;51.20;;;23.62;37.12;101813.34;5054795;28;20659;-63
2023/06/11 05:02:45;;;;;;;4.73;3.23;;;21.00;51.20;;;23.63;36.96;101812.28;5054495;28;20216;-67
2023/06/11 05:05:12;;;;;;;4.80;3.27;;;21.00;51.10;;;23.64;36.81;101819.31;5055062;28;20240;-63
2023/06/11 05:07:41;;;;;;;4.73;2.77;;;21.00;51.10;;;23.65;36.94;101818.28;5049433;28;20203;-64
2023/06/11 05:10:09;;;;;;;3.87;2.60;;;21.00;51.20;;;23.69;36.92;101819.44;5034810;28;21697;-64
2023/06/11 05:12:37;;;;;;;6.37;2.80;;;21.00;51.30;;;23.71;36.91;101825.38;5033868;28;20627;-63
2023/06/11 05:15:06;;;;;;;6.00;2.83;;;21.00;51.20;;;23.72;37.00;101829.72;5044826;28;20209;-62
2023/06/11 05:17:33;;;;;;;4.43;3.10;;;21.00;51.30;;;23.72;36.94;101824.34;5053757;28;20286;-62
2023/06/11 05:20:00;;;;;;;4.10;3.00;;;21.00;51.30;;;23.76;36.74;101830.88;5054754;28;20516;-63
2023/06/11 05:22:27;;;;;;;4.30;2.73;;;21.10;51.40;;;23.72;37.03;101829.72;5035810;28;20659;-64
2023/06/11 05:24:54;;;;;;;4.37;2.70;;;21.10;51.40;;;23.72;36.96;101821.66;5035184;28;20683;-62
2023/06/11 05:27:23;;;;;;;5.77;3.13;;;21.10;51.40;;;23.72;37.04;101823.53;5055015;28;20264;-64
2023/06/11 05:29:51;;;;;;;4.37;3.10;;;21.10;51.50;;;23.77;36.96;101821.75;5054565;28;20194;-63
2023/06/11 05:32:18;;;;;;;4.10;2.97;;;21.10;51.50;;;23.80;37.04;101823.16;5054183;28;20194;-63
2023/06/11 05:34:49;;;;;;;4.77;2.80;;;21.10;51.50;;;23.81;37.03;101822.94;5054031;28;20210;-63
2023/06/11 05:37:17;;;;;;;4.53;2.93;;;21.10;51.50;;;23.86;36.95;101823.06;5054238;28;20304;-62
2023/06/11 05:39:45;;;;;;;2.97;2.50;;;21.10;51.60;;;23.87;36.81;101830.06;5054141;28;20217;-65
2023/06/11 05:42:12;;;;;;;3.63;2.23;;;21.10;51.60;;;23.89;37.07;101830.63;5035064;28;20224;-62
2023/06/11 05:44:39;;;;;;;5.13;2.63;;;21.10;51.60;;;23.97;36.73;101830.28;5032942;28;20218;-66
2023/06/11 05:47:07;;;;;;;3.00;2.77;;;21.20;51.80;;;24.03;36.89;101834.69;5034091;28;20193;-64
2023/06/11 05:49:34;;;;;;;3.83;3.37;;;21.20;51.70;;;24.09;36.97;101841.88;5033872;28;20373;-63
2023/06/11 05:52:01;;;;;;;5.53;2.83;;;21.30;51.70;;;24.13;36.81;101832.25;5051008;28;20614;-63
2023/06/11 05:54:28;;;;;;;6.47;3.33;;;21.30;51.50;;;24.13;36.64;101843.03;5053764;28;20214;-63
2023/06/11 05:56:57;;;;;;;4.30;3.50;;;21.40;51.40;;;24.18;36.67;101848.53;5054037;28;20304;-63
2023/06/11 05:59:24;;;;;;;4.70;2.63;;;21.40;51.40;;;24.25;36.82;101844.91;5053877;28;20200;-63
2023/06/11 06:01:51;;;;;;;7.10;2.97;;;21.40;51.40;;;24.34;36.79;101843.47;5049530;28;20740;-63
2023/06/11 06:04:19;;;;;;;7.73;3.03;;;21.50;51.40;;;24.43;36.27;101842.84;5053494;28;20713;-62
2023/06/11 06:06:46;;;;;;;5.50;3.20;;;21.60;51.50;;;24.50;36.54;101831.94;5053741;28;20204;-64
2023/06/11 06:09:14;;;;;;;3.50;2.97;;;21.60;51.60;;;24.58;36.51;101834.25;5034706;28;20289;-63
2023/06/11 06:11:41;;;;;;;3.80;2.90;;;21.70;51.50;;;24.65;36.27;101835.72;5047425;28;20255;-63
2023/06/11 06:14:08;;;;;;;3.93;3.10;;;21.80;51.50;;;24.72;36.52;101830.22;5050060;28;20227;-64
2023/06/11 06:16:35;;;;;;;3.80;3.03;;;21.80;51.30;;;24.79;36.00;101833.63;5033547;28;20218;-63
2023/06/11 06:19:02;;;;;;;6.50;2.97;;;21.90;51.30;;;24.88;36.03;101832.97;5033753;28;20214;-62
2023/06/11 06:21:30;;;;;;;3.83;2.90;;;22.00;51.40;;;24.94;36.30;101827.69;5045163;28;20220;-63
2023/06/11 06:23:57;;;;;;;3.30;3.00;;;22.00;51.20;;;25.01;35.99;101837.22;5053308;28;20221;-63
2023/06/11 06:26:24;;;;;;;4.23;3.40;;;22.10;51.30;;;25.08;36.28;101829.81;5053661;28;20218;-63
2023/06/11 06:28:53;;;;;;;5.77;3.23;;;22.20;51.20;;;25.14;35.91;101825.31;5053596;28;20217;-63
2023/06/11 06:31:22;;;;;;;6.50;2.90;;;22.20;51.20;;;25.24;35.71;101833.59;5042386;28;20201;-62
2023/06/11 06:33:50;;;;;;;6.60;3.73;;;22.30;51.30;;;25.32;35.58;101842.06;5033161;28;20198;-64
2023/06/11 06:36:19;;;;;;;4.20;3.40;;;22.40;51.20;;;25.43;36.19;101840.38;5033462;28;20293;-62
2023/06/11 06:38:47;;;;;;;4.00;3.50;;;22.50;51.20;;;25.51;36.05;101827.31;5033787;28;20218;-62
2023/06/11 06:41:15;;;;;;;4.00;3.57;;;22.50;51.00;;;25.62;35.47;101832.88;5044031;28;20634;-63
2023/06/11 06:43:42;;;;;;;3.57;3.27;;;22.60;51.00;;;25.71;35.20;101829.50;5053252;28;20539;-65
2023/06/11 06:46:08;;;;;;;4.07;3.40;;;22.70;51.50;;;25.82;35.28;101830.44;5053269;28;20301;-62
2023/06/11 06:48:35;;;;;;;4.33;3.90;;;22.80;50.90;;;25.89;34.87;101834.59;5053421;28;20217;-63
2023/06/11 06:51:03;;;;;;;3.47;3.17;;;22.90;50.40;;;25.98;34.81;101830.41;5045950;28;20285;-62
2023/06/11 06:53:30;;;;;;;6.77;4.03;;;23.00;50.30;;;26.05;35.33;101825.66;5040466;28;20200;-63
2023/06/11 06:56:00;;;;;;;7.33;3.87;;;23.10;50.00;;;26.16;34.60;101827.47;5052968;28;20300;-63
2023/06/11 06:58:27;;;;;;;5.23;3.83;;;23.20;49.80;;;26.22;34.41;101824.81;5053190;28;20190;-63
2023/06/11 07:00:55;;;;;;;5.00;3.97;;;23.40;49.60;;;26.27;34.33;101833.78;5052962;28;20605;-63
2023/06/11 07:03:22;;;;;;;4.60;3.77;;;23.40;49.40;;;26.34;34.89;101828.22;5051016;28;20251;-61
2023/06/11 07:05:49;;;;;;;4.80;4.00;;;23.50;49.20;;;26.46;34.56;101827.00;5053177;28;20209;-63
2023/06/11 07:08:17;;;;;;;5.47;4.27;;;23.60;49.10;;;26.54;34.15;101829.25;5042877;28;20281;-63
2023/06/11 07:10:50;;;;;;;4.30;3.90;;;23.70;49.00;;;26.67;33.97;101834.25;5033707;28;20199;-64
2023/06/11 07:13:20;;;;;;;5.83;4.33;;;23.80;49.00;;;26.75;33.75;101835.72;5033218;28;20218;-63
2023/06/11 07:15:50;;;;;;;4.83;4.40;;;23.90;48.80;;;26.84;33.89;101836.88;5032729;28;20293;-64
2023/06/11 07:18:17;;;;;;;5.97;4.03;;;24.00;48.60;;;26.88;33.92;101832.63;5032942;28;20332;-63
2023/06/11 07:20:45;;;;;;;6.47;5.50;;;24.10;48.40;;;26.95;33.86;101840.50;5037251;28;20201;-64
2023/06/11 07:23:12;;;;;;;4.70;4.30;;;24.10;48.30;;;27.08;34.17;101832.78;5052827;28;20241;-64
2023/06/11 07:25:39;;;;;;;5.43;4.43;;;24.20;48.40;;;27.23;34.00;101842.91;5052711;28;20251;-64
2023/06/11 07:28:06;;;;;;;6.20;4.93;;;24.30;48.50;;;27.34;33.63;101845.44;5053340;28;20255;-63
2023/06/11 07:30:34;;;;;;;6.93;4.90;;;24.40;48.20;;;27.45;33.16;101838.25;5051171;28;20273;-64
2023/06/11 07:33:02;;;;;;;4.67;4.27;;;24.50;47.70;;;27.59;33.54;101844.84;5035463;28;20202;-63
2023/06/11 07:35:29;;;;;;;7.07;4.57;;;24.70;47.90;;;27.73;32.79;101839.78;5035893;28;20257;-64
2023/06/11 07:37:56;;;;;;;7.50;4.90;;;24.80;47.50;;;27.80;32.59;101834.97;5035964;28;20241;-64
2023/06/11 07:40:23;;;;;;;5.07;4.53;;;24.90;47.10;;;27.90;32.45;101833.16;5039093;28;20206;-63
2023/06/11 07:42:50;;;;;;;8.97;5.27;;;25.00;47.00;;;27.99;32.55;101837.00;5059781;28;20194;-65
2023/06/11 07:45:17;;;;;;;4.60;4.20;;;25.10;46.30;;;28.10;32.29;101838.69;5060544;28;20256;-65
2023/06/11 07:47:50;;;;;;;5.23;4.70;;;25.20;46.30;;;28.23;32.23;101841.97;5061406;28;20194;-64
2023/06/11 07:50:17;;;;;;;5.57;5.07;;;25.30;46.10;;;28.27;31.97;101843.06;5061254;28;20220;-64
2023/06/11 07:52:44;;;;;;;5.63;4.77;;;25.40;45.80;;;28.32;31.71;101834.97;5041043;28;20252;-64
2023/06/11 07:55:12;;;;;;;6.30;4.80;;;25.40;45.40;;;28.41;31.98;101849.66;5044676;28;20247;-64
2023/06/11 07:57:39;;;;;;;5.90;5.40;;;25.60;45.80;;;28.49;31.30;101835.56;5060626;28;20650;-63
2023/06/11 08:00:13;;;;;;;9.10;5.13;;;25.60;45.20;;;28.53;31.51;101842.91;5047731;28;20252;-63
2023/06/11 08:02:41;;;;;;;5.07;4.60;;;25.70;45.00;;;28.60;31.45;101837.25;5054677;28;20203;-64
2023/06/11 08:05:11;;;;;;;7.20;5.47;;;25.80;45.00;;;28.70;31.27;101834.56;5055788;28;20210;-64
2023/06/11 08:07:38;;;;;;;7.20;5.23;;;25.90;44.80;;;28.82;31.51;101835.97;5050756;28;20194;-62
2023/06/11 08:10:07;;;;;;;4.67;4.27;;;25.90;44.80;;;28.92;31.14;101832.44;5036219;28;20654;-62
2023/06/11 08:12:35;;;;;;;6.17;5.43;;;26.00;44.60;;;29.00;31.18;101841.94;5036682;28;20540;-63
2023/06/11 08:15:02;;;;;;;5.57;4.97;;;26.10;44.40;;;29.19;30.57;101834.94;5035481;28;20219;-65
2023/06/11 08:17:30;;;;;;;5.67;4.37;;;26.20;44.00;;;29.93;30.12;101835.91;5035668;28;20218;-64
2023/06/11 08:19:57;;;;;;;8.83;5.20;;;26.40;44.40;;;31.07;29.18;101840.22;5035567;28;20717;-63
2023/06/11 08:22:25;;;;;;;5.43;4.93;;;26.80;44.10;;;32.24;27.44;101831.72;5036193;28;20233;-63
2023/06/11 08:24:52;;;;;;;4.87;4.37;;;27.30;42.70;;;33.47;26.48;101827.69;5035833;28;20206;-63
2023/06/11 08:27:19;;;;;;;11.30;5.10;;;27.80;42.40;;;34.48;24.56;101827.28;5055710;28;20269;-63
2023/06/11 08:29:46;;;;;;;5.83;4.63;;;28.50;40.30;;;35.32;23.42;101831.03;5055602;28;20190;-62
2023/06/11 08:32:14;;;;;;;5.87;5.37;;;29.30;38.50;;;35.89;22.29;101834.69;5039621;28;20194;-62
2023/06/11 08:34:41;;;;;;;5.63;5.13;;;30.00;36.60;;;36.44;22.36;101834.19;5034955;28;20280;-64
2023/06/11 08:37:08;;;;;;;6.63;5.53;;;30.60;36.20;;;37.12;20.92;101833.38;5035356;28;20308;-65
2023/06/11 08:39:36;;;;;;;7.25;5.63;;;31.20;34.40;;;37.87;20.44;101833.47;5035327;28;20191;-65
2023/06/11 08:42:03;;;;;;;6.60;5.88;;;31.80;33.30;;;38.50;20.10;101832.44;5052607;28;20201;-65
2023/06/11 08:44:30;;;;;;;5.60;4.68;;;32.40;32.70;;;39.23;19.40;101824.50;5055112;28;20630;-63
2023/06/11 08:47:02;;;;;;;5.80;5.00;;;32.90;32.20;;;39.97;18.77;101834.44;5054240;28;20202;-64
2023/06/11 08:49:30;;;;;;;5.47;4.88;;;33.40;31.30;;;40.49;17.93;101832.56;5055721;28;20233;-64
2023/06/11 08:52:03;;;;;;;5.70;5.20;;;33.90;29.90;;;40.71;17.76;101834.78;5042617;28;20198;-64
2023/06/11 08:54:31;;;;;;;4.57;4.18;;;34.40;28.90;;;41.01;17.84;101833.28;5034844;28;20210;-63
2023/06/11 08:57:00;;;;;;;5.55;4.65;;;34.70;29.10;;;41.52;17.41;101830.66;5035148;28;20233;-64
2023/06/11 08:59:27;;;;;;;5.50;4.93;;;35.10;28.60;;;41.75;16.50;101837.19;5036617;28;20727;-63
2023/06/11 09:01:54;;;;;;;5.45;4.95;;;35.40;27.90;;;41.70;17.30;101837.47;5047317;28;20954;-63
2023/06/11 09:04:21;;;;;;;6.50;4.82;;;35.60;27.40;;;41.87;16.60;101830.75;5055465;28;20202;-63
2023/06/11 09:06:50;;;;;;;5.75;5.25;;;35.70;27.10;;;42.06;16.42;101834.38;5054459;28;20197;-63
2023/06/11 09:09:17;;;;;;;5.90;5.32;;;35.90;26.90;;;42.23;16.11;101828.44;5036058;28;20230;-64
2023/06/11 09:11:46;;;;;;;5.55;5.15;;;36.10;26.80;;;42.16;16.43;101833.84;5035083;28;20274;-63
2023/06/11 09:14:14;;;;;;;6.07;5.57;;;36.20;26.50;;;42.20;16.20;101831.16;5033093;28;20206;-63
2023/06/11 09:16:44;;;;;;;5.57;5.05;;;36.20;26.00;;;42.49;16.10;101830.56;5034848;28;20190;-66
2023/06/11 09:19:13;;;;;;;5.28;4.53;;;36.40;26.30;;;42.87;15.81;101832.53;5034474;28;20282;-64
2023/06/11 09:21:50;;;;;;;5.10;4.70;;;36.60;26.50;;;43.08;15.62;101833.78;5043304;28;20596;-64
2023/06/11 09:24:19;;;;;;;5.32;4.82;;;36.70;26.40;;;43.28;15.48;101831.75;5053786;28;20276;-63
2023/06/11 09:26:53;;;;;;;5.22;4.40;;;36.90;25.90;;;43.42;15.83;101829.25;5053912;28;20297;-62
2023/06/11 09:29:22;;;;;;;6.20;5.07;;;37.00;26.20;;;43.57;15.63;101831.09;5054264;28;20217;-67
2023/06/11 09:32:01;;;;;;;5.28;4.78;;;37.20;25.70;;;44.02;15.02;101832.19;5043970;28;20225;-62
2023/06/11 09:34:34;;;;;;;8.20;5.35;;;37.30;25.80;;;44.27;14.68;101825.00;5033877;28;20214;-63
2023/06/11 09:37:02;;;;;;;6.13;5.57;;;37.50;25.00;;;44.54;14.62;101832.13;5034498;28;20273;-63
2023/06/11 09:39:29;;;;;;;5.20;4.80;;;37.80;24.70;;;44.96;13.91;101823.47;5034274;28;20194;-64
2023/06/11 09:41:56;;;;;;;9.75;5.25;;;38.00;24.80;;;45.26;14.44;101831.75;5050354;28;20296;-63
2023/06/11 09:44:27;;;;;;;6.00;5.38;;;38.20;24.60;;;45.07;14.38;101834.72;5053453;28;20330;-63
2023/06/11 09:46:55;;;;;;;8.30;5.10;;;38.50;24.40;;;44.51;13.81;101835.66;5053876;28;20506;-63
2023/06/11 09:49:25;;;;;;;5.30;4.82;;;38.40;24.00;;;43.86;15.15;101831.56;5053675;28;20206;-63
2023/06/11 09:51:54;;;;;;;8.48;4.63;;;38.40;24.30;;;43.39;15.06;101818.88;5042835;28;20237;-64
2023/06/11 09:54:22;;;;;;;5.72;5.13;;;38.00;24.30;;;42.88;15.70;101820.28;5032435;28;20199;-62
2023/06/11 09:56:49;;;;;;;7.25;4.90;;;37.80;24.50;;;42.50;15.82;101825.88;5050550;28;20618;-62
2023/06/11 09:59:17;;;;;;;5.35;4.85;;;37.50;24.80;;;42.65;16.06;101822.22;5052315;28;20213;-63
2023/06/11 10:01:47;;;;;;;5.95;4.57;;;37.20;25.20;;;43.28;15.44;101820.66;5052942;28;20600;-62
2023/06/11 10:04:15;;;;;;;6.10;5.45;;;37.20;25.40;;;44.04;14.91;101827.03;5052703;28;20627;-63
2023/06/11 10:06:48;;;;;;;6.55;5.07;;;37.30;25.40;;;44.79;14.01;101824.84;5053566;28;20281;-63
2023/06/11 10:09:16;;;;;;;8.63;5.10;;;37.50;25.30;;;45.23;14.28;101826.94;5035258;28;20281;-63
2023/06/11 10:11:45;;;;;;;6.25;5.53;;;37.80;25.00;;;45.58;13.69;101816.88;5034145;28;20626;-64
2023/06/11 10:14:15;;;;;;;6.30;5.70;;;38.10;24.40;;;45.91;13.51;101829.06;5033078;28;20194;-63
2023/06/11 10:16:50;;;;;;;6.05;5.55;;;38.40;24.10;;;46.28;12.89;101827.69;5034059;28;20655;-64